Newton, Wisconsin
Current Conditions -  °F | °C
As of 5:15 PM on Wednesday 26 Nov 2014 (Local Time) from KMTW Reporting Station
Few Clouds Few Clouds  
Wind Chill: 21°   Ceiling: Unl
Heat Index: 21°   Visibility: 8mi
Dew Point: 19°   Wind: 0mph
Humidity: 93%   Direction: NA
Pressure: 30.17"   Gusts: NA
Location:  43.99°N, 87.73°W
Report Text: KMTW 262315Z AUTO 00000KT 8SM FEW026 M06/M07 A3017 RMK AO2 FZRANO
Loading
Personal Weather Stations






























Interactive Weather Map New forecast layout! Learn more

10-Day Weather Forecast

Advertisements
Track Severe Weather on mobile